APL Norway — A8NC4 — position and weather

sailwx.info

Track history (hours):
 
Tides and Currents Weather Stations Pressure Air Temp Water Temp Dewpoint Dewpoint Depression Visibility Wind Speed Wind Dir Waves Ship Positions

APL Norway

Last reported at 2014-Oct-22 16:33 UTC. Time now 2014-Oct-22 21:51 UTC.
Position N 22°48' E 120°04'.

Length 295 m; draft 12.5 m.

Type: Cargo ship. MMSI: 636013456.

Date/timePositionNaut miles runAvg speedWind from/ knotsBaromVisibWave heightAir tempDewpointWater temp
2014-Oct-22 16:33N 22°48' E 120°04'1717.1
2014-Oct-22 15:33N 22°33' E 120°13'6 5.4
2014-Oct-22 14:32N 22°34' E 120°19'0 0.0
2014-Oct-22 13:32N 22°34' E 120°19'0 0.0
2014-Oct-22 12:26N 22°34' E 120°19'0 0.0
2014-Oct-22 10:14N 22°34' E 120°19'0 0.0
2014-Oct-22 09:32N 22°34' E 120°19'0 0.0
2014-Oct-22 08:32N 22°34' E 120°19'0 0.0
2014-Oct-22 07:32N 22°34' E 120°19'0 0.0
2014-Oct-22 05:26N 22°34' E 120°19'0 0.0
2014-Oct-22 03:32N 22°34' E 120°19'0 0.0
2014-Oct-22 02:32N 22°34' E 120°19'0 0.0
2014-Oct-22 01:32N 22°34' E 120°19'1 0.9
2014-Oct-22 00:33N 22°33' E 120°18'3 3.0
2014-Oct-21 23:33N 22°32' E 120°15'6 6.1
2014-Oct-21 22:33N 22°31' E 120°09'6 6.4
2014-Oct-21 21:33N 22°30' E 120°02'7 7.2
2014-Oct-21 20:31N 22°30' E 119°54'1111.0
2014-Oct-21 19:33N 22°29' E 119°42'1918.9
2014-Oct-21 18:33N 22°27' E 119°22'1919.1
2014-Oct-21 17:33N 22°26' E 119°01'5719.2
2014-Oct-21 14:33N 22°21' E 117°60'1918.8
2014-Oct-21 13:33N 22°22' E 117°39'1818.8
2014-Oct-21 12:33N 22°22' E 117°19'1918.9
2014-Oct-21 11:32N 22°19' E 116°58'1818.1
2014-Oct-21 10:33N 22°18' E 116°39'1919.0
2014-Oct-21 09:32N 22°16' E 116°18'11518.7
2014-Oct-21 03:23N 22°08' E 114°14'1313.3
2014-Oct-21 02:26N 22°17' E 114°06'1110.8
2014-Oct-21 01:27N 22°21' E 113°55'6 7.0
2014-Oct-21 00:33N 22°27' E 113°53'1 0.4
2014-Oct-20 22:26N 22°28' E 113°53'0 0.0
2014-Oct-20 21:14N 22°28' E 113°53'0 0.0
2014-Oct-20 20:32N 22°28' E 113°53'0 0.0
2014-Oct-20 19:32N 22°28' E 113°53'0 0.0
2014-Oct-20 18:32N 22°28' E 113°53'0 0.0
2014-Oct-20 17:32N 22°28' E 113°53'0 0.0
2014-Oct-20 16:29N 22°28' E 113°53'0 0.0
2014-Oct-20 15:32N 22°28' E 113°53'0 0.0
2014-Oct-20 14:32N 22°28' E 113°53'0 0.0
2014-Oct-20 13:32N 22°28' E 113°53'0 0.0
2014-Oct-20 12:32N 22°28' E 113°53'0 0.0
2014-Oct-20 11:26N 22°28' E 113°53'0 0.0
2014-Oct-20 10:26N 22°28' E 113°53'0 0.3
2014-Oct-20 09:33N 22°28' E 113°52'6 6.4
2014-Oct-20 08:33N 22°22' E 113°55'1010.1
2014-Oct-20 07:33N 22°19' E 114°05'11 9.9
2014-Oct-20 06:29N 22°11' E 114°12'  
2014-Oct-16 11:33N 01°14' E 103°60'9 9.0
2014-Oct-16 10:33N 01°16' E 103°51'0 0.4
2014-Oct-16 09:29N 01°16' E 103°51'0 0.0
2014-Oct-16 08:32N 01°16' E 103°51'0 0.0
2014-Oct-16 07:32N 01°16' E 103°51'0 0.0
2014-Oct-16 06:32N 01°16' E 103°51'0 0.0
2014-Oct-16 05:29N 01°16' E 103°51'0 0.0
2014-Oct-16 04:17N 01°16' E 103°51'0 0.0
2014-Oct-16 02:05N 01°16' E 103°51'0 0.0
2014-Oct-16 01:32N 01°16' E 103°51'0 0.0
2014-Oct-16 00:26N 01°16' E 103°51'0 0.0
2014-Oct-15 23:29N 01°16' E 103°51'0 0.0
2014-Oct-15 22:32N 01°16' E 103°51'0 0.0
2014-Oct-15 21:23N 01°16' E 103°51'0 0.0
2014-Oct-15 20:32N 01°16' E 103°51'0 0.0
2014-Oct-15 19:23N 01°16' E 103°51'0 0.0
2014-Oct-15 18:32N 01°16' E 103°51'0 0.0
2014-Oct-15 16:29N 01°16' E 103°51'0 0.0
2014-Oct-15 15:05N 01°16' E 103°51'0 0.0
2014-Oct-15 14:29N 01°16' E 103°51'0 0.0
2014-Oct-15 13:32N 01°16' E 103°51'0 0.0
2014-Oct-15 12:23N 01°16' E 103°51'0 0.0
2014-Oct-15 11:29N 01°16' E 103°51'0 0.0
2014-Oct-15 10:32N 01°16' E 103°51'0 0.0
2014-Oct-15 09:32N 01°16' E 103°51'0 0.0
2014-Oct-15 08:31N 01°16' E 103°51'0 0.0
2014-Oct-15 07:31N 01°16' E 103°51'0 0.0
2014-Oct-15 06:16N 01°16' E 103°51'0 0.0
2014-Oct-15 05:13N 01°16' E 103°51'0 0.0
2014-Oct-15 04:22N 01°16' E 103°51'0 0.0
2014-Oct-15 03:16N 01°16' E 103°51'0 0.0
2014-Oct-15 02:07N 01°16' E 103°51'0 0.0
2014-Oct-15 01:19N 01°16' E 103°51'0 0.0
2014-Oct-15 00:28N 01°16' E 103°51'0 0.0
2014-Oct-14 23:31N 01°16' E 103°51'0 0.0
2014-Oct-14 22:31N 01°16' E 103°51'0 0.0
2014-Oct-14 21:31N 01°16' E 103°51'0 0.0
2014-Oct-14 20:28N 01°16' E 103°51'0 0.0
2014-Oct-14 19:31N 01°16' E 103°51'0 0.0
2014-Oct-14 18:31N 01°16' E 103°51'0 0.0
2014-Oct-14 17:28N 01°16' E 103°51'0 0.0
2014-Oct-14 16:28N 01°16' E 103°51'0 0.0
2014-Oct-14 15:31N 01°16' E 103°51'0 0.0
2014-Oct-14 14:31N 01°16' E 103°51'0 0.0
2014-Oct-14 13:31N 01°16' E 103°51'0 0.0
2014-Oct-14 12:31N 01°16' E 103°51'0 0.1
2014-Oct-14 11:33N 01°16' E 103°51'6 5.9
2014-Oct-14 10:33N 01°14' E 103°56'1413.5
2014-Oct-14 09:32N 01°17' E 104°10'  
Track history (hours):
 
Tides and Currents Weather Stations Pressure Air Temp Water Temp Dewpoint Dewpoint Depression Visibility Wind Speed Wind Dir Waves Ship Positions

APL Norway

Last reported at 2014-Oct-22 16:33 UTC. Time now 2014-Oct-22 21:51 UTC.
Position N 22°48' E 120°04'.

Length 295 m; draft 12.5 m.

Type: Cargo ship. MMSI: 636013456.

Date/timePositionNaut miles runAvg speedWind from/ knotsBaromVisibWave heightAir tempDewpointWater temp
2014-Oct-22 16:33N 22°48' E 120°04'1717.1
2014-Oct-22 15:33N 22°33' E 120°13'6 5.4
2014-Oct-22 14:32N 22°34' E 120°19'0 0.0
2014-Oct-22 13:32N 22°34' E 120°19'0 0.0
2014-Oct-22 12:26N 22°34' E 120°19'0 0.0
2014-Oct-22 10:14N 22°34' E 120°19'0 0.0
2014-Oct-22 09:32N 22°34' E 120°19'0 0.0
2014-Oct-22 08:32N 22°34' E 120°19'0 0.0
2014-Oct-22 07:32N 22°34' E 120°19'0 0.0
2014-Oct-22 05:26N 22°34' E 120°19'0 0.0
2014-Oct-22 03:32N 22°34' E 120°19'0 0.0
2014-Oct-22 02:32N 22°34' E 120°19'0 0.0
2014-Oct-22 01:32N 22°34' E 120°19'1 0.9
2014-Oct-22 00:33N 22°33' E 120°18'3 3.0
2014-Oct-21 23:33N 22°32' E 120°15'6 6.1
2014-Oct-21 22:33N 22°31' E 120°09'6 6.4
2014-Oct-21 21:33N 22°30' E 120°02'7 7.2
2014-Oct-21 20:31N 22°30' E 119°54'1111.0
2014-Oct-21 19:33N 22°29' E 119°42'1918.9
2014-Oct-21 18:33N 22°27' E 119°22'1919.1
2014-Oct-21 17:33N 22°26' E 119°01'5719.2
2014-Oct-21 14:33N 22°21' E 117°60'1918.8
2014-Oct-21 13:33N 22°22' E 117°39'1818.8
2014-Oct-21 12:33N 22°22' E 117°19'1918.9
2014-Oct-21 11:32N 22°19' E 116°58'1818.1
2014-Oct-21 10:33N 22°18' E 116°39'1919.0
2014-Oct-21 09:32N 22°16' E 116°18'11518.7
2014-Oct-21 03:23N 22°08' E 114°14'1313.3
2014-Oct-21 02:26N 22°17' E 114°06'1110.8
2014-Oct-21 01:27N 22°21' E 113°55'6 7.0
2014-Oct-21 00:33N 22°27' E 113°53'1 0.4
2014-Oct-20 22:26N 22°28' E 113°53'0 0.0
2014-Oct-20 21:14N 22°28' E 113°53'0 0.0
2014-Oct-20 20:32N 22°28' E 113°53'0 0.0
2014-Oct-20 19:32N 22°28' E 113°53'0 0.0
2014-Oct-20 18:32N 22°28' E 113°53'0 0.0
2014-Oct-20 17:32N 22°28' E 113°53'0 0.0
2014-Oct-20 16:29N 22°28' E 113°53'0 0.0
2014-Oct-20 15:32N 22°28' E 113°53'0 0.0
2014-Oct-20 14:32N 22°28' E 113°53'0 0.0
2014-Oct-20 13:32N 22°28' E 113°53'0 0.0
2014-Oct-20 12:32N 22°28' E 113°53'0 0.0
2014-Oct-20 11:26N 22°28' E 113°53'0 0.0
2014-Oct-20 10:26N 22°28' E 113°53'0 0.3
2014-Oct-20 09:33N 22°28' E 113°52'6 6.4
2014-Oct-20 08:33N 22°22' E 113°55'1010.1
2014-Oct-20 07:33N 22°19' E 114°05'11 9.9
2014-Oct-20 06:29N 22°11' E 114°12'  
2014-Oct-16 11:33N 01°14' E 103°60'9 9.0
2014-Oct-16 10:33N 01°16' E 103°51'0 0.4
2014-Oct-16 09:29N 01°16' E 103°51'0 0.0
2014-Oct-16 08:32N 01°16' E 103°51'0 0.0
2014-Oct-16 07:32N 01°16' E 103°51'0 0.0
2014-Oct-16 06:32N 01°16' E 103°51'0 0.0
2014-Oct-16 05:29N 01°16' E 103°51'0 0.0
2014-Oct-16 04:17N 01°16' E 103°51'0 0.0
2014-Oct-16 02:05N 01°16' E 103°51'0 0.0
2014-Oct-16 01:32N 01°16' E 103°51'0 0.0
2014-Oct-16 00:26N 01°16' E 103°51'0 0.0
2014-Oct-15 23:29N 01°16' E 103°51'0 0.0
2014-Oct-15 22:32N 01°16' E 103°51'0 0.0
2014-Oct-15 21:23N 01°16' E 103°51'0 0.0
2014-Oct-15 20:32N 01°16' E 103°51'0 0.0
2014-Oct-15 19:23N 01°16' E 103°51'0 0.0
2014-Oct-15 18:32N 01°16' E 103°51'0 0.0
2014-Oct-15 16:29N 01°16' E 103°51'0 0.0
2014-Oct-15 15:05N 01°16' E 103°51'0 0.0
2014-Oct-15 14:29N 01°16' E 103°51'0 0.0
2014-Oct-15 13:32N 01°16' E 103°51'0 0.0
2014-Oct-15 12:23N 01°16' E 103°51'0 0.0
2014-Oct-15 11:29N 01°16' E 103°51'0 0.0
2014-Oct-15 10:32N 01°16' E 103°51'0 0.0
2014-Oct-15 09:32N 01°16' E 103°51'0 0.0
2014-Oct-15 08:31N 01°16' E 103°51'0 0.0
2014-Oct-15 07:31N 01°16' E 103°51'0 0.0
2014-Oct-15 06:16N 01°16' E 103°51'0 0.0
2014-Oct-15 05:13N 01°16' E 103°51'0 0.0
2014-Oct-15 04:22N 01°16' E 103°51'0 0.0
2014-Oct-15 03:16N 01°16' E 103°51'0 0.0
2014-Oct-15 02:07N 01°16' E 103°51'0 0.0
2014-Oct-15 01:19N 01°16' E 103°51'0 0.0
2014-Oct-15 00:28N 01°16' E 103°51'0 0.0
2014-Oct-14 23:31N 01°16' E 103°51'0 0.0
2014-Oct-14 22:31N 01°16' E 103°51'0 0.0
2014-Oct-14 21:31N 01°16' E 103°51'0 0.0
2014-Oct-14 20:28N 01°16' E 103°51'0 0.0
2014-Oct-14 19:31N 01°16' E 103°51'0 0.0
2014-Oct-14 18:31N 01°16' E 103°51'0 0.0
2014-Oct-14 17:28N 01°16' E 103°51'0 0.0
2014-Oct-14 16:28N 01°16' E 103°51'0 0.0
2014-Oct-14 15:31N 01°16' E 103°51'0 0.0
2014-Oct-14 14:31N 01°16' E 103°51'0 0.0
2014-Oct-14 13:31N 01°16' E 103°51'0 0.0
2014-Oct-14 12:31N 01°16' E 103°51'0 0.1
2014-Oct-14 11:33N 01°16' E 103°51'6 5.9
2014-Oct-14 10:33N 01°14' E 103°56'1413.5
2014-Oct-14 09:32N 01°17' E 104°10'  

Dump ship's entire track history